To NAV CANADA Home Page Login to a new session Search on AWWS site Feedback and Comments Disclaimer Vers la page française équivalente Tips FAQ What's new on the site To the Forecasts and Observations / NOTAM section To "File a Flight Plan" website Publications and other links Update of the User's profile FIC Telephone Numbers My Weather Data Folder Route Weather Data Regional Weather Data Local Weather Data To the Forecasts and Observations / NOTAM section
Request Generated 04/26/2015 at 08:12:06 UTC . Weather information available at that time is displayed.

METAR/TAF

QUEBEC/JEAN LESAGE INTL/QC    

METAR CYQB 260800Z 00000KT 15SM OVC088 02/02 A2965 RMK AC8 SLP042=
METAR CYQB 260700Z 00000KT 15SM OVC090 02/02 A2967 RMK AC8 SLP049=
METAR CYQB 260600Z 25002KT 15SM FEW040 OVC090 02/01 A2968 RMK SC1AC8
SC TR SLP054=

TAF CYQB 260539Z 2606/2706 VRB03KT P6SM SCT040 BKN090 TEMPO 2606/2613
5SM BR BKN008 BKN090 PROB30 2606/2612 3/4SM BR BKN004 OVC008
FM261300 25008KT P6SM SCT015 BKN040
FM261600 07008KT 3SM -RA BR OVC015
FM262200 07008KT 6SM -SHRA BR SCT010 OVC030
FM270100 02005KT 5SM BR OVC030
RMK NXT FCST BY 261200Z=
Your time UTC time
Weather data provided by Environment Canada and NAV CANADA